Time;durP1;ratioP1;P1;durP2;ratioP2;P2;SDS_P1;SDS_P2;PMS_P1;PMS_P2;Temp;Humidity;BMP_temperature;BMP_pressure;BME280_temperature;BME280_humidity;BME280_pressure;Samples;Min_cycle;Max_cycle;Signal;HPM_P1;HPM_P2
2021/04/23 00:01:07;;;;;;;8.50;6.03;;;;;;;14.27;57.74;99775.63;5031628;28;20037;-37
2021/04/23 00:03:40;;;;;;;9.85;6.65;;;;;;;14.53;56.68;99773.66;5031678;28;20123;-38
2021/04/23 00:06:15;;;;;;;8.15;5.93;;;;;;;14.24;57.79;99769.91;5031674;28;20057;-38
2021/04/23 00:08:46;;;;;;;9.20;6.20;;;;;;;13.78;58.06;99774.00;5031484;28;20115;-37
2021/04/23 00:11:12;;;;;;;8.70;5.78;;;;;;;14.29;57.08;99764.72;5031268;28;20057;-39
2021/04/23 00:13:37;;;;;;;11.32;6.03;;;;;;;13.86;58.47;99765.69;5031511;28;20029;-38
2021/04/23 00:16:03;;;;;;;11.40;6.30;;;;;;;13.20;60.13;99775.19;5031168;28;20030;-38
2021/04/23 00:18:28;;;;;;;8.60;5.93;;;;;;;14.16;57.91;99772.91;5031299;28;20040;-38
2021/04/23 00:20:54;;;;;;;9.77;5.90;;;;;;;14.13;57.36;99776.06;5031210;28;20079;-38
2021/04/23 00:23:19;;;;;;;8.50;6.00;;;;;;;13.48;59.49;99774.75;5030918;28;20026;-38
2021/04/23 00:25:45;;;;;;;7.55;5.75;;;;;;;13.59;59.37;99778.53;5030742;28;20355;-38
2021/04/23 00:28:12;;;;;;;11.65;6.22;;;;;;;14.43;56.51;99784.91;5030964;28;20021;-38
2021/04/23 00:30:42;;;;;;;8.55;5.90;;;;;;;13.91;59.07;99773.84;5030741;28;20125;-39
2021/04/23 00:33:08;;;;;;;9.27;5.47;;;;;;;13.25;60.87;99770.84;5030528;28;20078;-38
2021/04/23 00:35:37;;;;;;;7.70;5.70;;;;;;;13.87;59.12;99778.00;5031004;28;20067;-39
2021/04/23 00:38:04;;;;;;;8.93;5.43;;;;;;;14.03;58.58;99777.41;5030741;28;20041;-38
2021/04/23 00:40:31;;;;;;;7.80;5.72;;;;;;;13.42;60.27;99780.97;5031457;28;20030;-38
2021/04/23 00:42:57;;;;;;;10.35;5.90;;;;;;;13.42;60.96;99775.63;5031093;28;20022;-38
2021/04/23 00:45:24;;;;;;;8.95;5.68;;;;;;;14.24;57.55;99784.13;5029622;28;20056;-38
2021/04/23 00:47:50;;;;;;;7.10;5.63;;;;;;;13.76;58.54;99781.44;5031148;28;20026;-38
2021/04/23 00:50:46;;;;;;;7.63;5.57;;;;;;;13.38;60.02;99782.44;5030515;28;20046;-37
2021/04/23 00:53:21;;;;;;;6.47;5.40;;;;;;;14.09;58.45;99781.06;5030512;28;20064;-38
2021/04/23 00:55:46;;;;;;;6.80;5.22;;;;;;;13.62;58.75;99786.13;5031187;28;20041;-38
2021/04/23 00:58:14;;;;;;;7.57;5.30;;;;;;;13.34;59.33;99779.41;5030941;28;20027;-38
2021/04/23 01:00:45;;;;;;;8.10;5.47;;;;;;;13.85;58.39;99785.44;5030760;28;20040;-37
2021/04/23 01:03:11;;;;;;;7.82;5.43;;;;;;;14.02;57.58;99786.47;5031273;28;20040;-38
2021/04/23 01:05:37;;;;;;;7.53;5.28;;;;;;;13.65;58.95;99778.47;5030741;28;20033;-39
2021/04/23 01:08:02;;;;;;;7.63;5.72;;;;;;;13.63;59.13;99788.59;5030650;28;20029;-37
2021/04/23 01:10:28;;;;;;;7.85;5.13;;;;;;;14.32;57.18;99785.69;5030646;28;20049;-37
2021/04/23 01:12:54;;;;;;;7.05;5.10;;;;;;;13.66;58.82;99792.66;5029319;28;20112;-38
2021/04/23 01:15:19;;;;;;;10.48;5.53;;;;;;;13.29;60.21;99788.06;5030721;28;20026;-38
2021/04/23 01:17:45;;;;;;;9.27;5.90;;;;;;;13.92;58.71;99793.38;5030760;28;20042;-38
2021/04/23 01:20:11;;;;;;;9.07;5.57;;;;;;;13.83;58.56;99798.22;5030901;28;20040;-38
2021/04/23 01:22:36;;;;;;;10.30;5.93;;;;;;;13.41;60.31;99798.06;5030856;28;20520;-39
2021/04/23 01:25:02;;;;;;;8.43;6.20;;;;;;;13.80;58.93;99802.19;5030666;28;20106;-38
2021/04/23 01:27:28;;;;;;;9.73;6.32;;;;;;;14.35;57.00;99809.31;5030808;28;20401;-38
2021/04/23 01:29:53;;;;;;;8.65;6.30;;;;;;;13.77;58.47;99804.47;5030341;28;20029;-37
2021/04/23 01:32:19;;;;;;;13.10;8.30;;;;;;;13.48;60.68;99804.16;5030541;28;20033;-37
2021/04/23 01:34:45;;;;;;;11.90;7.07;;;;;;;14.00;58.48;99804.59;5030137;28;20029;-38
2021/04/23 01:37:13;;;;;;;10.65;6.68;;;;;;;13.79;59.43;99802.41;5030480;28;20030;-38
2021/04/23 01:39:38;;;;;;;10.95;7.03;;;;;;;13.26;61.38;99801.84;5030337;28;20017;-38
2021/04/23 01:42:05;;;;;;;14.38;7.55;;;;;;;13.58;60.64;99796.44;5029890;28;20083;-38
2021/04/23 01:44:31;;;;;;;11.07;6.38;;;;;;;13.99;59.66;99799.47;5029603;28;20017;-38
2021/04/23 01:46:57;;;;;;;9.20;6.60;;;;;;;13.23;61.44;99798.78;5030206;28;20052;-38
2021/04/23 01:49:22;;;;;;;10.55;7.05;;;;;;;12.84;63.75;99801.56;5030320;28;20037;-37
2021/04/23 01:51:54;;;;;;;11.57;7.20;;;;;;;13.86;60.45;99801.28;5030434;28;20021;-38
2021/04/23 01:54:20;;;;;;;11.32;6.68;;;;;;;13.42;61.43;99805.88;5030192;28;20057;-38
2021/04/23 01:56:46;;;;;;;12.90;7.45;;;;;;;12.88;63.44;99815.31;5029516;28;20029;-37
2021/04/23 01:59:11;;;;;;;9.63;6.78;;;;;;;13.08;63.95;99801.81;5029394;28;20158;-38
2021/04/23 02:01:37;;;;;;;9.65;6.65;;;;;;;13.57;61.01;99797.47;5029620;28;20026;-38
2021/04/23 02:04:06;;;;;;;11.90;6.43;;;;;;;13.10;61.96;99799.75;5029841;28;20028;-38
2021/04/23 02:06:32;;;;;;;11.05;6.78;;;;;;;13.03;63.90;99799.78;5029686;28;20511;-38
2021/04/23 02:08:57;;;;;;;10.32;6.68;;;;;;;13.96;61.05;99806.09;5029521;28;20061;-37
2021/04/23 02:11:23;;;;;;;12.48;6.97;;;;;;;13.58;61.37;99803.66;5029974;28;20057;-37
2021/04/23 02:13:49;;;;;;;11.35;6.97;;;;;;;13.07;62.79;99814.34;5029864;28;20033;-39
2021/04/23 02:16:15;;;;;;;10.20;6.72;;;;;;;13.69;60.67;99808.25;5028512;28;20410;-38
2021/04/23 02:18:41;;;;;;;9.73;6.63;;;;;;;13.76;60.89;99806.31;5030022;28;20036;-38
2021/04/23 02:21:07;;;;;;;10.75;6.72;;;;;;;13.09;63.46;99808.78;5029962;28;20040;-38
2021/04/23 02:23:33;;;;;;;11.82;6.80;;;;;;;13.32;62.42;99813.53;5029934;28;20100;-38
2021/04/23 02:25:58;;;;;;;9.68;6.45;;;;;;;13.73;60.94;99813.97;5028111;28;20013;-38
2021/04/23 02:28:23;;;;;;;9.75;6.50;;;;;;;13.36;61.43;99812.06;5029840;28;20025;-39
2021/04/23 02:31:11;;;;;;;10.23;6.70;;;;;;;13.10;62.68;99821.94;5029850;28;20026;-38
2021/04/23 02:33:36;;;;;;;10.23;6.32;;;;;;;13.88;60.59;99817.91;5029411;28;20060;-37
2021/04/23 02:36:02;;;;;;;12.73;6.40;;;;;;;13.53;60.97;99816.84;5029727;28;20049;-38
2021/04/23 02:38:28;;;;;;;12.07;6.88;;;;;;;13.17;62.82;99831.75;5029285;28;20028;-38
2021/04/23 02:40:53;;;;;;;14.35;6.43;;;;;;;13.50;61.57;99823.47;5029751;28;20063;-39
2021/04/23 02:43:21;;;;;;;13.00;6.30;;;;;;;13.75;59.53;99825.28;5029852;28;20040;-38
2021/04/23 02:45:47;;;;;;;11.88;6.00;;;;;;;13.48;61.02;99817.53;5030034;28;20044;-38
2021/04/23 02:48:14;;;;;;;11.60;6.35;;;;;;;13.59;60.88;99815.97;5029664;28;20426;-38
2021/04/23 02:50:44;;;;;;;12.13;5.50;;;;;;;14.14;58.70;99809.78;5029423;28;20025;-38
2021/04/23 02:53:10;;;;;;;12.55;6.00;;;;;;;13.65;60.24;99809.72;5029557;28;20044;-38
2021/04/23 02:55:35;;;;;;;12.25;5.60;;;;;;;13.46;60.11;99811.56;5032231;28;20659;-38
2021/04/23 02:58:05;;;;;;;14.07;5.32;;;;;;;14.16;58.34;99829.94;5033206;28;20036;-38
2021/04/23 03:00:32;;;;;;;10.02;5.13;;;;;;;13.78;58.20;99832.84;5033098;28;20017;-38
2021/04/23 03:02:58;;;;;;;8.15;4.72;;;;;;;13.59;58.87;99840.84;5033130;28;20106;-37
2021/04/23 03:05:24;;;;;;;19.63;12.10;;;;;;;14.03;56.95;99836.28;5032879;28;20410;-38
2021/04/23 03:07:50;;;;;;;12.55;8.15;;;;;;;14.16;56.80;99837.16;5032747;28;20049;-38
2021/04/23 03:10:17;;;;;;;27.70;16.15;;;;;;;13.60;57.91;99834.47;5032683;28;20728;-38
2021/04/23 03:12:42;;;;;;;28.33;15.73;;;;;;;13.80;57.72;99844.13;5032966;28;20101;-39
2021/04/23 03:15:08;;;;;;;8.07;5.13;;;;;;;14.43;55.62;99840.28;5033020;28;20032;-38
2021/04/23 03:17:34;;;;;;;9.15;4.38;;;;;;;14.16;56.10;99834.47;5033151;28;20045;-39
2021/04/23 03:20:00;;;;;;;7.88;5.20;;;;;;;13.76;57.48;99835.72;5032917;28;20515;-38
2021/04/23 03:22:25;;;;;;;8.27;4.75;;;;;;;14.48;55.20;99833.22;5032864;28;20087;-38
2021/04/23 03:24:51;;;;;;;9.35;6.10;;;;;;;14.23;55.63;99841.38;5032609;28;20025;-38
2021/04/23 03:27:16;;;;;;;8.45;3.97;;;;;;;13.77;56.85;99852.63;5032936;28;20048;-38
2021/04/23 03:29:43;;;;;;;7.32;4.30;;;;;;;14.15;56.09;99860.41;5032873;28;20504;-37
2021/04/23 03:32:08;;;;;;;25.95;16.65;;;;;;;14.29;55.42;99863.75;5032207;28;20033;-37
2021/04/23 03:34:34;;;;;;;28.77;15.38;;;;;;;13.84;55.81;99870.22;5032487;28;20032;-38
2021/04/23 03:36:59;;;;;;;24.95;12.57;;;;;;;13.82;56.03;99872.31;5032367;28;20469;-38
2021/04/23 03:39:24;;;;;;;6.70;4.53;;;;;;;14.06;55.13;99881.31;5032478;28;20021;-39
2021/04/23 03:41:50;;;;;;;6.57;3.80;;;;;;;14.02;54.42;99876.63;5032542;28;20040;-38
2021/04/23 03:44:15;;;;;;;5.43;3.72;;;;;;;13.81;55.22;99876.00;5032414;28;20198;-39
2021/04/23 03:46:41;;;;;;;9.40;3.58;;;;;;;14.10;54.26;99878.19;5032133;28;20045;-38
2021/04/23 03:49:06;;;;;;;5.13;3.60;;;;;;;14.14;54.59;99879.38;5032249;28;20029;-38
2021/04/23 03:51:32;;;;;;;5.47;3.42;;;;;;;13.70;55.27;99887.44;5032123;28;20048;-38
2021/04/23 03:53:57;;;;;;;9.65;5.00;;;;;;;13.86;54.91;99881.53;5032012;28;20033;-39
2021/04/23 03:56:23;;;;;;;8.88;4.40;;;;;;;14.35;53.83;99886.13;5032466;28;20025;-38
2021/04/23 03:58:49;;;;;;;6.70;4.05;;;;;;;14.24;54.02;99890.38;5031660;28;20044;-38
2021/04/23 04:01:17;;;;;;;9.30;5.05;;;;;;;13.79;55.72;99866.59;5031446;28;20083;-37
2021/04/23 04:03:44;;;;;;;24.23;14.55;;;;;;;14.45;54.17;99876.53;5031406;28;20516;-38
2021/04/23 04:06:09;;;;;;;9.00;5.75;;;;;;;14.46;53.72;99890.72;5029840;28;20037;-38
2021/04/23 04:08:35;;;;;;;4.20;3.40;;;;;;;13.92;55.23;99878.97;5031226;28;20041;-37
2021/04/23 04:11:01;;;;;;;4.75;3.38;;;;;;;14.34;54.79;99884.50;5029445;28;20049;-39
2021/04/23 04:13:27;;;;;;;6.28;3.67;;;;;;;14.61;54.14;99893.03;5030679;28;20032;-38
2021/04/23 04:15:52;;;;;;;5.10;3.28;;;;;;;14.05;55.88;99908.28;5030400;28;20100;-38
2021/04/23 04:18:18;;;;;;;4.40;3.30;;;;;;;13.96;55.92;99915.78;5029837;28;20029;-37
2021/04/23 04:20:46;;;;;;;5.50;3.50;;;;;;;14.36;55.13;99920.72;5029672;28;20047;-39
2021/04/23 04:23:15;;;;;;;6.40;3.42;;;;;;;13.98;56.13;99924.41;5029961;28;20171;-38
2021/04/23 04:25:41;;;;;;;7.95;3.65;;;;;;;13.71;57.38;99939.06;5029753;28;20452;-38
2021/04/23 04:28:08;;;;;;;7.72;3.67;;;;;;;14.28;56.00;99942.44;5016953;28;20559;-38
2021/04/23 04:30:34;;;;;;;12.45;3.95;;;;;;;14.33;55.94;99917.66;5028798;28;20029;-39
2021/04/23 04:32:59;;;;;;;5.18;3.60;;;;;;;13.97;57.25;99911.25;5029413;28;20025;-50
2021/04/23 04:35:28;;;;;;;4.97;3.50;;;;;;;13.83;57.26;99894.53;5029794;28;20045;-52
2021/04/23 04:37:55;;;;;;;8.30;3.70;;;;;;;14.60;56.06;99939.59;5030471;28;20025;-53
2021/04/23 04:40:20;;;;;;;7.30;3.88;;;;;;;14.37;56.47;99932.22;5023506;28;20505;-49
2021/04/23 04:42:46;;;;;;;8.38;4.38;;;;;;;14.21;56.84;99934.47;5029601;28;20033;-52
2021/04/23 04:45:15;;;;;;;11.80;5.20;;;;;;;14.79;55.26;99924.31;5030275;28;20024;-52
2021/04/23 04:47:40;;;;;;;9.75;3.83;;;;;;;14.85;54.82;99924.25;5030001;28;20187;-52
2021/04/23 04:50:09;;;;;;;7.22;4.03;;;;;;;14.34;56.43;99928.16;5029674;28;20053;-51
2021/04/23 04:52:34;;;;;;;6.47;4.40;;;;;;;14.59;55.90;99928.09;5029936;28;20033;-54
2021/04/23 04:55:02;;;;;;;7.28;3.90;;;;;;;14.90;55.03;99928.91;5029681;28;20029;-51
2021/04/23 04:57:27;;;;;;;5.93;3.78;;;;;;;14.37;56.28;99919.66;5029453;28;20060;-52
2021/04/23 04:59:52;;;;;;;7.97;4.00;;;;;;;14.18;56.81;99918.84;5030228;28;20385;-52
2021/04/23 05:02:18;;;;;;;7.68;4.00;;;;;;;14.72;55.80;99926.28;5029959;28;20040;-50
2021/04/23 05:04:43;;;;;;;11.57;3.90;;;;;;;14.56;55.91;99925.81;5030292;28;20029;-53
2021/04/23 05:07:10;;;;;;;5.53;3.80;;;;;;;14.10;57.35;99923.69;5030054;28;20095;-53
2021/04/23 05:09:35;;;;;;;8.35;4.03;;;;;;;14.80;59.03;99926.78;5030309;28;20029;-53
2021/04/23 05:12:01;;;;;;;35.72;19.27;;;;;;;15.38;55.76;99932.53;5029959;28;20025;-51
2021/04/23 05:14:26;;;;;;;19.13;11.63;;;;;;;15.69;54.69;99925.22;5030063;28;20033;-51
2021/04/23 05:16:52;;;;;;;13.55;7.55;;;;;;;16.03;57.40;99920.97;5014851;28;20029;-52
2021/04/23 05:19:20;;;;;;;12.43;8.00;;;;;;;16.98;54.67;99924.19;5022850;28;20040;-52
2021/04/23 05:21:46;;;;;;;9.75;4.35;;;;;;;16.90;50.56;99914.66;5016049;28;20036;-51
2021/04/23 05:24:12;;;;;;;7.50;4.10;;;;;;;16.88;50.58;99924.03;5025516;28;20025;-53
2021/04/23 05:26:38;;;;;;;8.05;4.18;;;;;;;16.49;52.25;99919.22;5030450;28;20071;-52
2021/04/23 05:29:04;;;;;;;6.50;3.75;;;;;;;16.55;52.02;99925.53;5029826;28;20033;-52
2021/04/23 05:31:33;;;;;;;5.72;3.45;;;;;;;16.58;51.64;99925.88;5029578;28;20040;-52
2021/04/23 05:33:59;;;;;;;5.37;3.40;;;;;;;16.41;52.36;99930.31;5029610;28;20037;-53
2021/04/23 05:36:24;;;;;;;5.10;3.53;;;;;;;16.66;51.84;99927.34;5029397;28;20264;-50
2021/04/23 05:38:50;;;;;;;7.93;3.55;;;;;;;16.68;51.74;99938.69;5029520;28;20083;-50
2021/04/23 05:41:15;;;;;;;7.55;3.42;;;;;;;16.89;51.52;99944.47;5029154;28;20509;-54
2021/04/23 05:43:43;;;;;;;6.95;3.40;;;;;;;16.86;51.72;99943.06;5029776;28;20030;-51
2021/04/23 05:46:09;;;;;;;5.75;3.50;;;;;;;16.71;52.25;99946.25;5029313;28;20025;-53
2021/04/23 05:48:35;;;;;;;5.75;3.63;;;;;;;16.76;52.71;99946.34;5029268;28;20021;-52
2021/04/23 05:51:01;;;;;;;6.57;3.92;;;;;;;17.06;52.16;99941.81;5029272;28;20041;-51
2021/04/23 05:53:26;;;;;;;10.30;4.82;;;;;;;17.00;51.27;99952.50;5029859;28;20029;-52
2021/04/23 05:55:51;;;;;;;4.68;3.55;;;;;;;16.93;52.25;99951.00;5029442;28;20083;-53
2021/04/23 05:58:17;;;;;;;6.65;3.58;;;;;;;16.87;52.37;99960.84;5029251;28;20028;-49
2021/04/23 06:00:43;;;;;;;5.40;3.17;;;;;;;16.95;52.35;99971.22;5029470;28;20036;-51
2021/04/23 06:03:09;;;;;;;3.95;3.30;;;;;;;16.95;52.33;99968.50;5029265;28;20034;-53
2021/04/23 06:05:34;;;;;;;4.35;3.08;;;;;;;17.60;51.10;99974.50;5029371;28;20022;-51
2021/04/23 06:08:02;;;;;;;5.15;3.40;;;;;;;17.22;52.00;99978.69;5029534;28;20032;-53
2021/04/23 06:10:28;;;;;;;9.82;5.53;;;;;;;17.38;52.20;99972.53;5029194;28;20087;-50
2021/04/23 06:12:54;;;;;;;9.75;5.18;;;;;;;17.61;51.18;99972.59;5029650;28;20026;-53
2021/04/23 06:15:19;;;;;;;7.05;5.00;;;;;;;17.51;51.15;99974.06;5029576;28;20037;-51
2021/04/23 06:17:45;;;;;;;6.35;4.07;;;;;;;17.89;51.16;99969.84;5029652;28;20122;-51
2021/04/23 06:20:13;;;;;;;8.70;3.33;;;;;;;17.60;51.32;99979.88;5029343;28;20032;-50
2021/04/23 06:22:38;;;;;;;8.85;3.15;;;;;;;17.64;51.25;99986.41;5029293;28;20022;-51
2021/04/23 06:25:08;;;;;;;9.15;2.95;;;;;;;17.62;51.23;99982.31;5029423;28;20099;-53
2021/04/23 06:27:34;;;;;;;7.97;3.28;;;;;;;17.65;50.95;99989.88;5029239;28;20032;-54
2021/04/23 06:29:59;;;;;;;6.03;3.25;;;;;;;17.95;50.63;99982.34;5031487;28;20108;-51
2021/04/23 06:32:25;;;;;;;8.43;4.10;;;;;;;17.88;50.79;99976.31;5033058;28;20030;-53
2021/04/23 06:34:50;;;;;;;6.47;3.10;;;;;;;17.69;51.96;99980.28;5015325;28;20036;-52
2021/04/23 06:37:16;;;;;;;5.32;3.50;;;;;;;17.61;51.65;99978.81;5032931;28;20032;-52
2021/04/23 06:39:41;;;;;;;7.90;3.30;;;;;;;17.60;51.21;99985.25;5032956;28;20037;-51
2021/04/23 06:42:07;;;;;;;8.43;3.40;;;;;;;17.81;51.27;99982.91;5032771;28;20036;-50
2021/04/23 06:44:32;;;;;;;6.65;3.35;;;;;;;18.03;51.04;99980.28;5033127;28;20126;-52
2021/04/23 06:46:57;;;;;;;5.07;3.20;;;;;;;18.24;50.10;99986.78;5032765;28;20026;-52
2021/04/23 06:49:23;;;;;;;5.45;3.10;;;;;;;18.15;49.97;99989.09;5033191;28;20021;-50
2021/04/23 06:51:49;;;;;;;5.25;3.40;;;;;;;18.28;50.02;99996.81;5031386;28;20025;-51
2021/04/23 06:54:15;;;;;;;7.07;3.40;;;;;;;18.07;50.17;99995.72;5031006;28;20029;-53
2021/04/23 06:56:41;;;;;;;8.85;3.85;;;;;;;17.89;50.91;99993.28;5032622;28;20511;-53
2021/04/23 06:59:06;;;;;;;5.60;3.30;;;;;;;17.76;50.66;99997.91;5032881;28;20033;-53
2021/04/23 07:01:32;;;;;;;6.95;3.55;;;;;;;17.66;51.20;99999.63;5032426;28;20405;-52
2021/04/23 07:03:57;;;;;;;6.68;3.35;;;;;;;17.97;50.07;100009.00;5032806;28;20044;-52
2021/04/23 07:06:23;;;;;;;9.75;3.33;;;;;;;17.74;50.36;99999.19;5032635;28;20077;-52
2021/04/23 07:08:48;;;;;;;7.13;4.07;;;;;;;18.08;49.66;100005.41;5032443;28;20095;-52
2021/04/23 07:11:16;;;;;;;7.20;3.47;;;;;;;18.59;48.79;100004.50;5032017;28;20057;-52
2021/04/23 07:13:41;;;;;;;11.43;3.28;;;;;;;18.23;49.38;99998.63;5032057;28;20028;-53
2021/04/23 07:16:07;;;;;;;3.85;2.72;;;;;;;18.38;48.36;100003.41;5031892;28;20034;-52
2021/04/23 07:18:32;;;;;;;6.95;3.30;;;;;;;18.89;48.14;100001.41;5031974;28;20021;-53
2021/04/23 07:20:58;;;;;;;8.98;3.30;;;;;;;19.16;47.27;100006.00;5032467;28;20026;-53
2021/04/23 07:23:23;;;;;;;7.78;3.50;;;;;;;18.88;47.69;99994.38;5031906;28;20034;-53
2021/04/23 07:25:49;;;;;;;8.57;2.97;;;;;;;19.05;47.35;99997.78;5031981;28;20032;-52
2021/04/23 07:28:14;;;;;;;7.90;2.90;;;;;;;19.19;47.38;99997.38;5031809;28;20144;-52
2021/04/23 07:30:40;;;;;;;6.47;3.20;;;;;;;19.42;46.33;100002.50;5032051;28;20026;-53
2021/04/23 07:33:08;;;;;;;8.88;2.50;;;;;;;19.33;46.50;99995.94;5032063;28;20041;-51
2021/04/23 07:35:33;;;;;;;5.18;2.92;;;;;;;19.60;45.92;99997.78;5031778;28;20049;-52
2021/04/23 07:37:59;;;;;;;6.10;2.83;;;;;;;19.39;46.15;100003.00;5031859;28;20029;-53
2021/04/23 07:40:25;;;;;;;5.60;2.40;;;;;;;18.95;46.76;100000.38;5031799;28;20564;-52
2021/04/23 07:42:51;;;;;;;6.40;2.60;;;;;;;19.29;46.14;99998.31;5031786;28;20065;-50
2021/04/23 07:45:16;;;;;;;4.85;2.40;;;;;;;18.62;47.19;100001.28;5031528;28;20024;-52
2021/04/23 07:47:45;;;;;;;6.03;3.00;;;;;;;19.25;46.22;99994.50;5032171;28;20037;-53
2021/04/23 07:50:12;;;;;;;5.25;2.80;;;;;;;19.33;45.90;99996.72;5031858;28;20025;-53
2021/04/23 07:52:40;;;;;;;7.38;3.00;;;;;;;19.54;45.52;100005.84;5031299;28;20056;-53
2021/04/23 07:55:08;;;;;;;3.72;2.60;;;;;;;19.91;44.87;99994.31;5031459;28;20021;-51
2021/04/23 07:57:36;;;;;;;3.55;2.40;;;;;;;19.71;45.29;99996.81;5031460;28;20034;-50
2021/04/23 08:00:06;;;;;;;6.00;2.30;;;;;;;19.41;45.60;99997.34;5031187;28;20025;-51
2021/04/23 08:02:32;;;;;;;4.88;2.80;;;;;;;19.49;45.27;99994.97;5031178;28;20025;-49
2021/04/23 08:04:57;;;;;;;4.70;3.00;;;;;;;19.70;44.67;99992.47;5031396;28;20025;-49
2021/04/23 08:07:23;;;;;;;3.80;2.50;;;;;;;20.28;43.93;99990.75;5031572;28;20113;-49
2021/04/23 08:09:48;;;;;;;5.13;2.90;;;;;;;20.11;43.75;99995.50;5031187;28;20056;-52
2021/04/23 08:12:13;;;;;;;3.85;2.50;;;;;;;19.97;43.10;100005.13;5031219;28;20398;-49
2021/04/23 08:14:39;;;;;;;4.55;2.65;;;;;;;20.51;42.32;99996.81;5030519;28;20025;-53
2021/04/23 08:17:05;;;;;;;3.38;2.25;;;;;;;20.75;41.85;99999.09;5031391;28;20506;-53
2021/04/23 08:19:30;;;;;;;3.47;2.30;;;;;;;19.89;43.35;100001.00;5031344;28;20088;-52
2021/04/23 08:21:56;;;;;;;2.72;2.15;;;;;;;19.43;44.31;100001.41;5031494;28;20023;-52
2021/04/23 08:24:21;;;;;;;3.38;2.40;;;;;;;19.47;44.34;99999.00;5031104;28;20079;-52
2021/04/23 08:26:47;;;;;;;3.17;2.47;;;;;;;19.71;43.95;99997.59;5031223;28;20111;-52
2021/04/23 08:29:12;;;;;;;2.63;2.33;;;;;;;19.67;43.93;99993.81;5031580;28;20476;-49
2021/04/23 08:31:39;;;;;;;4.97;2.40;;;;;;;19.66;44.11;99985.94;5031158;28;20061;-53
2021/04/23 08:34:04;;;;;;;3.22;2.40;;;;;;;19.63;43.74;100000.78;5030739;28;20021;-52
2021/04/23 08:36:30;;;;;;;3.75;2.40;;;;;;;19.94;43.65;99995.66;5031101;28;20409;-52
2021/04/23 08:38:55;;;;;;;4.53;2.20;;;;;;;19.61;43.60;99994.84;5029343;28;20374;-52
2021/04/23 08:41:21;;;;;;;2.60;2.20;;;;;;;19.75;43.37;100005.25;5030904;28;20021;-53
2021/04/23 08:43:46;;;;;;;3.08;2.10;;;;;;;19.75;43.47;99997.94;5031123;28;20025;-50
2021/04/23 08:46:12;;;;;;;5.70;2.30;;;;;;;20.08;43.18;100007.63;5030797;28;20021;-51
2021/04/23 08:48:37;;;;;;;3.50;2.30;;;;;;;19.98;43.25;99993.25;5031049;28;20032;-51
2021/04/23 08:51:03;;;;;;;7.05;2.25;;;;;;;20.07;42.96;99997.09;5012987;28;20409;-50
2021/04/23 08:53:29;;;;;;;2.38;2.10;;;;;;;19.94;43.29;99984.03;5028496;28;20112;-51
2021/04/23 08:55:57;;;;;;;5.80;2.08;;;;;;;20.13;42.90;99985.25;5030109;28;20029;-51
2021/04/23 08:58:23;;;;;;;2.85;2.17;;;;;;;19.79;43.80;99996.34;5030175;28;20029;-53
2021/04/23 09:00:48;;;;;;;4.82;2.28;;;;;;;19.94;43.74;99984.03;5030737;28;20104;-49
2021/04/23 09:03:18;;;;;;;2.83;2.40;;;;;;;20.42;43.31;99990.25;5030419;28;20025;-52
2021/04/23 09:06:07;;;;;;;5.28;2.47;;;;;;;20.13;43.59;99990.66;5030286;28;20017;-49
2021/04/23 09:08:34;;;;;;;2.75;2.10;;;;;;;20.11;43.52;99987.41;5028531;28;20146;-52
2021/04/23 09:11:00;;;;;;;5.07;2.03;;;;;;;20.36;42.98;99981.31;5029965;28;20107;-51
2021/04/23 09:13:26;;;;;;;2.50;1.98;;;;;;;20.37;42.45;99984.81;5011790;28;20037;-52
2021/04/23 09:15:55;;;;;;;2.72;2.03;;;;;;;20.21;42.73;99984.75;5028330;28;20025;-52
2021/04/23 09:18:25;;;;;;;2.58;2.10;;;;;;;20.50;41.42;99973.53;5030059;28;20449;-52
2021/04/23 09:21:03;;;;;;;2.38;1.88;;;;;;;20.28;42.43;99976.41;5030617;28;20033;-50
2021/04/23 09:23:28;;;;;;;4.68;1.92;;;;;;;20.40;42.05;99968.91;5030623;28;20017;-51
2021/04/23 09:25:56;;;;;;;3.63;2.15;;;;;;;20.88;41.40;99976.97;5029848;28;20044;-50
2021/04/23 09:28:38;;;;;;;3.38;2.20;;;;;;;20.84;41.49;99978.56;5029569;28;20107;-51
2021/04/23 09:31:23;;;;;;;7.95;2.38;;;;;;;20.53;41.24;99974.91;5029768;28;20047;-50
2021/04/23 09:33:50;;;;;;;2.05;1.85;;;;;;;20.78;40.59;99988.56;5029646;28;20102;-49
2021/04/23 09:36:27;;;;;;;2.80;2.30;;;;;;;20.77;40.75;99976.13;5029894;28;20489;-50
2021/04/23 09:39:19;;;;;;;2.88;1.98;;;;;;;20.60;40.87;99970.09;5029794;28;20022;-52
2021/04/23 09:41:53;;;;;;;2.20;2.00;;;;;;;20.93;40.18;99978.88;5029436;28;20026;-49
2021/04/23 09:44:35;;;;;;;4.65;2.30;;;;;;;21.28;39.14;99978.97;5029171;28;20021;-52
2021/04/23 09:47:07;;;;;;;5.68;2.30;;;;;;;21.35;39.23;99969.75;5029216;28;20033;-52
2021/04/23 09:49:33;;;;;;;3.75;2.20;;;;;;;21.47;39.78;99979.25;5029533;28;20026;-52
2021/04/23 09:52:00;;;;;;;4.53;2.50;;;;;;;21.20;39.55;99974.06;5029634;28;20026;-49
2021/04/23 09:54:26;;;;;;;2.72;2.30;;;;;;;21.50;39.13;99974.41;5029542;28;20021;-51
2021/04/23 09:56:52;;;;;;;2.22;2.03;;;;;;;22.02;37.78;99973.25;5028237;28;20134;-50
2021/04/23 09:59:26;;;;;;;6.38;2.35;;;;;;;21.86;38.81;99965.16;5029780;28;20397;-50
2021/04/23 10:01:59;;;;;;;5.63;2.30;;;;;;;22.56;38.03;99960.94;5029287;28;20029;-52
2021/04/23 10:04:26;;;;;;;3.13;2.17;;;;;;;22.32;37.60;99969.69;5030254;28;20024;-49
2021/04/23 10:07:14;;;;;;;3.58;2.15;;;;;;;21.82;38.39;99960.59;5033579;28;20036;-50
2021/04/23 10:09:48;;;;;;;4.68;2.30;;;;;;;22.00;37.86;99970.81;5033258;28;20022;-50
2021/04/23 10:12:36;;;;;;;2.70;2.22;;;;;;;22.58;36.82;99970.44;5033502;28;20060;-51
2021/04/23 10:15:17;;;;;;;3.75;2.40;;;;;;;22.44;37.54;99972.91;5033249;28;20058;-51
2021/04/23 10:17:47;;;;;;;3.50;2.45;;;;;;;22.61;37.51;99959.00;5033251;28;20032;-50
2021/04/23 10:20:15;;;;;;;10.35;2.30;;;;;;;22.75;37.32;99971.97;5033155;28;20025;-51
2021/04/23 10:22:42;;;;;;;4.07;2.35;;;;;;;22.54;36.89;99965.81;5033102;28;20381;-52
2021/04/23 10:25:08;;;;;;;2.90;2.35;;;;;;;22.91;37.35;99970.81;5033288;28;20160;-52
2021/04/23 10:27:34;;;;;;;5.80;2.40;;;;;;;22.73;37.47;99966.84;5033135;28;20052;-51
2021/04/23 10:30:01;;;;;;;4.25;2.35;;;;;;;23.02;36.91;99958.81;5031658;28;20045;-50
2021/04/23 10:32:26;;;;;;;4.72;2.42;;;;;;;23.10;35.90;99957.44;5031600;28;20046;-50
2021/04/23 10:34:52;;;;;;;8.32;2.03;;;;;;;23.09;36.08;99950.38;5032939;28;20025;-51
2021/04/23 10:37:17;;;;;;;4.28;2.22;;;;;;;23.08;36.21;99950.66;5031814;28;20080;-49
2021/04/23 10:39:45;;;;;;;4.88;2.15;;;;;;;23.49;35.34;99945.72;5032799;28;20509;-52
2021/04/23 10:42:49;;;;;;;6.93;2.50;;;;;;;23.10;35.51;99943.84;5015722;28;20052;-51
2021/04/23 10:45:21;;;;;;;3.90;2.20;;;;;;;22.78;36.07;99931.53;5032978;28;20025;-51
2021/04/23 10:47:48;;;;;;;8.00;2.60;;;;;;;22.84;35.80;99946.69;5032920;28;20029;-50
2021/04/23 10:50:40;;;;;;;3.05;2.30;;;;;;;23.65;34.84;99943.69;5032940;28;20034;-49
2021/04/23 10:53:13;;;;;;;2.60;1.90;;;;;;;22.74;36.61;99943.22;5023739;28;20510;-52
2021/04/23 10:55:39;;;;;;;2.83;2.22;;;;;;;23.73;35.00;99948.50;5032860;28;20025;-53
2021/04/23 10:58:04;;;;;;;3.65;2.20;;;;;;;23.41;35.57;99943.63;5033051;28;20101;-52
2021/04/23 11:00:36;;;;;;;6.57;2.30;;;;;;;23.06;34.94;99937.38;5031638;28;20480;-52
2021/04/23 11:03:20;;;;;;;3.15;2.10;;;;;;;23.39;34.77;99927.59;5032516;28;20021;-50
2021/04/23 11:05:46;;;;;;;2.15;1.95;;;;;;;23.72;34.21;99933.31;5032334;28;20033;-51
2021/04/23 11:08:12;;;;;;;4.00;1.75;;;;;;;23.52;34.08;99934.28;5032506;28;20060;-52
2021/04/23 11:11:02;;;;;;;3.88;2.00;;;;;;;23.03;34.78;99910.78;5032108;28;20057;-51
2021/04/23 11:13:32;;;;;;;4.70;2.10;;;;;;;23.39;34.27;99948.53;5031853;28;20037;-49
2021/04/23 11:16:15;;;;;;;;;;;;;;;23.34;34.54;99952.09;5032969;28;20087;-50
2021/04/23 11:18:41;;;;;;;2.35;1.98;;;;;;;23.51;34.12;99940.00;5032866;28;19932;-50
2021/04/23 11:24:22;;;;;;;2.00;1.77;;;;;;;23.76;33.72;99934.38;5032501;28;20029;-51
2021/04/23 11:26:54;;;;;;;5.15;2.00;;;;;;;24.17;33.08;99944.81;5032277;28;20037;-51
2021/04/23 11:29:33;;;;;;;4.18;1.75;;;;;;;23.63;33.77;99951.31;5032183;28;20032;-50
2021/04/23 11:32:17;;;;;;;3.65;2.35;;;;;;;23.37;34.11;99931.72;5032088;28;20030;-50
2021/04/23 11:34:47;;;;;;;2.55;1.90;;;;;;;23.49;33.85;99937.56;5032500;28;20512;-50
2021/04/23 11:37:19;;;;;;;2.35;1.90;;;;;;;23.61;33.72;99926.34;5032384;28;20418;-50